createdAt,value
2022-08-26T00:02:20.726Z,23.20
2022-08-26T00:04:50.826Z,23.30
2022-08-26T00:07:20.131Z,23.38
2022-08-26T00:09:50.083Z,23.43
2022-08-26T00:12:31.474Z,23.44
2022-08-26T00:15:10.646Z,23.42
2022-08-26T00:17:40.256Z,23.41
2022-08-26T00:20:12.425Z,23.36
2022-08-26T00:22:44.183Z,23.25
2022-08-26T00:25:16.802Z,23.14
2022-08-26T00:27:47.234Z,23.05
2022-08-26T00:30:29.555Z,22.99
2022-08-26T00:33:00.690Z,22.94
2022-08-26T00:35:31.490Z,22.91
2022-08-26T00:38:04.574Z,22.84
2022-08-26T00:40:41.798Z,22.78
2022-08-26T00:43:11.726Z,22.77
2022-08-26T00:45:54.265Z,22.73
2022-08-26T00:48:27.835Z,22.72
2022-08-26T00:51:23.602Z,22.72
2022-08-26T00:54:06.947Z,22.71
2022-08-26T00:56:59.851Z,22.62
2022-08-26T00:59:33.025Z,22.54
2022-08-26T01:02:04.799Z,22.53
2022-08-26T01:04:38.633Z,22.49
2022-08-26T01:07:07.952Z,22.41
2022-08-26T01:09:39.430Z,22.33
2022-08-26T01:12:09.335Z,22.28
2022-08-26T01:14:42.261Z,22.24
2022-08-26T01:17:16.246Z,22.23
2022-08-26T01:20:20.947Z,22.18
2022-08-26T01:23:08.683Z,22.11
2022-08-26T01:25:44.858Z,22.02
2022-08-26T01:28:25.074Z,21.95
2022-08-26T01:30:57.952Z,21.84
2022-08-26T01:33:55.392Z,21.76
2022-08-26T01:36:26.872Z,21.65
2022-08-26T01:38:56.649Z,21.56
2022-08-26T01:41:29.165Z,21.46
2022-08-26T01:44:00.103Z,21.36
2022-08-26T01:46:32.498Z,21.29
2022-08-26T01:49:07.831Z,21.21
2022-08-26T01:51:40.731Z,21.18
2022-08-26T01:54:12.080Z,21.11
2022-08-26T01:56:43.408Z,21.04
2022-08-26T01:59:17.216Z,20.96
2022-08-26T02:01:46.779Z,20.88
2022-08-26T02:04:28.132Z,20.82
2022-08-26T02:06:59.145Z,20.75
2022-08-26T02:09:28.666Z,20.68
2022-08-26T02:12:02.898Z,20.62
2022-08-26T02:14:43.752Z,20.56
2022-08-26T02:17:14.490Z,20.49
2022-08-26T02:19:50.627Z,20.41
2022-08-26T02:22:24.955Z,20.34
2022-08-26T02:25:02.365Z,20.28
2022-08-26T02:27:35.990Z,20.22
2022-08-26T02:30:18.938Z,20.13
2022-08-26T02:32:49.555Z,20.01
2022-08-26T02:35:21.693Z,19.93
2022-08-26T02:37:53.411Z,19.85
2022-08-26T02:40:28.596Z,19.72
2022-08-26T02:42:58.604Z,19.58
2022-08-26T02:45:30.444Z,19.52
2022-08-26T02:48:00.019Z,19.45
2022-08-26T02:50:29.851Z,19.37
2022-08-26T02:52:59.086Z,19.28
2022-08-26T02:55:28.465Z,19.17
2022-08-26T02:57:57.893Z,19.08
2022-08-26T03:00:28.003Z,19.03
2022-08-26T03:02:57.811Z,19.00
2022-08-26T03:05:27.768Z,18.95
2022-08-26T03:07:57.127Z,18.93
2022-08-26T03:10:32.584Z,18.92
2022-08-26T03:13:05.014Z,18.90
2022-08-26T03:15:34.581Z,18.86
2022-08-26T03:18:03.777Z,18.81
2022-08-26T03:20:34.068Z,18.76
2022-08-26T03:23:06.893Z,18.70
2022-08-26T03:25:36.293Z,18.62
2022-08-26T03:28:05.963Z,18.58
2022-08-26T03:30:45.489Z,18.56
2022-08-26T03:33:16.462Z,18.53
2022-08-26T03:35:50.623Z,18.50
2022-08-26T03:38:26.372Z,18.47
2022-08-26T03:40:57.302Z,18.44
2022-08-26T03:43:27.909Z,18.40
2022-08-26T03:45:57.119Z,18.38
2022-08-26T03:48:26.636Z,18.34
2022-08-26T03:50:55.686Z,18.29
2022-08-26T03:53:26.953Z,18.22
2022-08-26T03:55:57.039Z,18.16
2022-08-26T03:58:26.994Z,18.10
2022-08-26T04:00:59.091Z,18.07
2022-08-26T04:03:48.190Z,18.01
2022-08-26T04:06:18.544Z,17.89
2022-08-26T04:08:47.756Z,17.75
2022-08-26T04:11:23.552Z,17.67
2022-08-26T04:13:53.081Z,17.59
2022-08-26T04:16:22.828Z,17.53
2022-08-26T04:18:55.482Z,17.46
2022-08-26T04:21:26.642Z,17.36
2022-08-26T04:23:58.299Z,17.28
2022-08-26T04:26:28.008Z,17.22
2022-08-26T04:28:57.756Z,17.14
2022-08-26T04:31:28.816Z,17.06
2022-08-26T04:34:01.431Z,16.97
2022-08-26T04:36:31.054Z,16.91
2022-08-26T04:39:03.564Z,16.80
2022-08-26T04:41:34.115Z,16.72
2022-08-26T04:44:06.052Z,16.63
2022-08-26T04:46:35.662Z,16.55
2022-08-26T04:49:09.748Z,16.48
2022-08-26T04:51:39.728Z,16.43
2022-08-26T04:54:09.045Z,16.42
2022-08-26T04:56:43.080Z,16.40
2022-08-26T04:59:18.028Z,16.44
2022-08-26T05:01:52.412Z,16.42
2022-08-26T05:04:23.086Z,16.44
2022-08-26T05:06:55.675Z,16.43
2022-08-26T05:09:27.114Z,16.41
2022-08-26T05:11:56.474Z,16.40
2022-08-26T05:14:25.605Z,16.36
2022-08-26T05:16:55.098Z,16.28
2022-08-26T05:19:27.924Z,16.20
2022-08-26T05:21:57.690Z,16.16
2022-08-26T05:24:27.363Z,16.10
2022-08-26T05:26:56.604Z,16.05
2022-08-26T05:29:26.403Z,16.02
2022-08-26T05:31:56.023Z,15.98
2022-08-26T05:34:25.836Z,15.96
2022-08-26T05:37:00.479Z,15.96
2022-08-26T05:39:29.741Z,15.97
2022-08-26T05:41:59.469Z,16.00
2022-08-26T05:44:29.076Z,16.03
2022-08-26T05:47:05.977Z,16.03
2022-08-26T05:49:36.556Z,16.05
2022-08-26T05:52:14.765Z,16.05
2022-08-26T05:54:44.288Z,16.01
2022-08-26T05:57:14.844Z,15.95
2022-08-26T05:59:44.215Z,15.87
2022-08-26T06:02:15.282Z,15.78
2022-08-26T06:04:44.506Z,15.74
2022-08-26T06:07:14.358Z,15.69
2022-08-26T06:09:44.461Z,15.64
2022-08-26T06:12:15.299Z,15.61
2022-08-26T06:14:44.601Z,15.58
2022-08-26T06:17:13.998Z,15.56
2022-08-26T06:19:43.504Z,15.51
2022-08-26T06:22:32.778Z,15.47
2022-08-26T06:25:21.440Z,15.46
2022-08-26T06:27:52.457Z,15.51
2022-08-26T06:30:21.977Z,15.55
2022-08-26T06:32:51.917Z,15.55
2022-08-26T06:35:22.221Z,15.60
2022-08-26T06:37:51.476Z,15.62
2022-08-26T06:40:21.961Z,15.62
2022-08-26T06:42:51.595Z,15.60
2022-08-26T06:45:21.130Z,15.57
2022-08-26T06:47:51.090Z,15.57
2022-08-26T06:50:20.868Z,15.58
2022-08-26T06:52:50.253Z,15.60
2022-08-26T06:55:21.034Z,15.63
2022-08-26T06:57:59.004Z,15.66
2022-08-26T07:00:28.381Z,15.69
2022-08-26T07:02:57.432Z,15.74
2022-08-26T07:05:27.329Z,15.76
2022-08-26T07:07:59.091Z,15.80
2022-08-26T07:10:28.877Z,15.81
2022-08-26T07:12:58.176Z,15.83
2022-08-26T07:15:31.180Z,15.81
2022-08-26T07:18:01.060Z,15.80
2022-08-26T07:20:30.637Z,15.79
2022-08-26T07:23:00.000Z,15.78
2022-08-26T07:25:31.001Z,15.77
2022-08-26T07:28:00.495Z,15.77
2022-08-26T07:30:32.672Z,15.76
2022-08-26T07:33:04.756Z,15.74
2022-08-26T07:35:34.056Z,15.74
2022-08-26T07:38:04.143Z,15.74
2022-08-26T07:40:35.177Z,15.75
2022-08-26T07:43:04.548Z,15.77
2022-08-26T07:45:33.892Z,15.79
2022-08-26T07:48:04.006Z,15.80
2022-08-26T07:50:48.796Z,15.80
2022-08-26T07:53:20.731Z,15.81
2022-08-26T07:55:51.512Z,15.81
2022-08-26T07:58:21.297Z,15.79
2022-08-26T08:00:50.566Z,15.78
2022-08-26T08:03:23.154Z,15.78
2022-08-26T08:05:52.879Z,15.75
2022-08-26T08:08:27.812Z,15.75
2022-08-26T08:10:58.839Z,15.75
2022-08-26T08:13:30.092Z,15.74
2022-08-26T08:15:59.370Z,15.77
2022-08-26T08:18:29.816Z,15.80
2022-08-26T08:21:05.180Z,15.77
2022-08-26T08:23:48.455Z,15.72
2022-08-26T08:26:17.952Z,15.67
2022-08-26T08:28:48.212Z,15.63
2022-08-26T08:31:52.092Z,15.63
2022-08-26T08:34:14.513Z,15.64
2022-08-26T08:36:44.472Z,15.68
2022-08-26T08:39:16.672Z,15.71
2022-08-26T08:42:11.049Z,15.74
2022-08-26T08:44:51.805Z,15.78
2022-08-26T08:47:48.518Z,15.79
2022-08-26T08:50:50.335Z,15.80
2022-08-26T08:53:38.602Z,15.79
2022-08-26T08:56:26.478Z,15.78
2022-08-26T08:59:05.661Z,15.77
2022-08-26T09:01:46.409Z,15.71
2022-08-26T09:04:27.774Z,15.70
2022-08-26T09:07:00.742Z,15.66
2022-08-26T09:09:42.799Z,15.63
2022-08-26T09:12:29.853Z,15.59
2022-08-26T09:16:03.334Z,15.56
2022-08-26T09:18:50.579Z,15.55
2022-08-26T09:21:26.343Z,15.54
2022-08-26T09:23:57.858Z,15.53
2022-08-26T09:26:48.782Z,15.53
2022-08-26T09:29:30.958Z,15.55
2022-08-26T09:32:28.166Z,15.55
2022-08-26T09:35:04.370Z,15.54
2022-08-26T09:40:28.712Z,15.48
2022-08-26T09:43:22.477Z,15.44
2022-08-26T09:46:18.282Z,15.39
2022-08-26T09:48:51.638Z,15.30
2022-08-26T09:51:27.286Z,15.27
2022-08-26T09:53:59.369Z,15.28
2022-08-26T09:56:35.677Z,15.30
2022-08-26T09:59:11.021Z,15.35
2022-08-26T10:01:46.143Z,15.33
2022-08-26T10:04:28.064Z,15.32
2022-08-26T10:07:01.067Z,15.30
2022-08-26T10:09:44.459Z,15.23
2022-08-26T10:12:22.453Z,15.19
2022-08-26T10:15:10.337Z,15.19
2022-08-26T10:18:21.402Z,15.16
2022-08-26T10:21:19.844Z,15.07
2022-08-26T10:23:56.706Z,14.99
2022-08-26T10:27:17.985Z,14.94
2022-08-26T10:29:56.383Z,14.94
2022-08-26T10:32:46.366Z,14.90
2022-08-26T10:35:18.941Z,14.81
2022-08-26T10:37:55.243Z,14.78
2022-08-26T10:40:51.754Z,14.77
2022-08-26T10:44:01.150Z,14.76
2022-08-26T10:46:44.149Z,14.79
2022-08-26T10:49:19.110Z,14.80
2022-08-26T10:52:34.612Z,14.82
2022-08-26T10:55:37.484Z,14.80
2022-08-26T10:58:09.055Z,14.76
2022-08-26T11:01:15.701Z,14.71
2022-08-26T11:04:25.620Z,14.64
2022-08-26T11:07:34.732Z,14.63
2022-08-26T11:10:13.430Z,14.66
2022-08-26T11:12:43.230Z,14.66
2022-08-26T11:15:41.401Z,14.61
2022-08-26T11:18:14.491Z,14.57
2022-08-26T11:20:48.143Z,14.54
2022-08-26T11:23:24.072Z,14.55
2022-08-26T11:26:11.303Z,14.53
2022-08-26T11:28:50.454Z,14.60
2022-08-26T11:31:28.852Z,14.58
2022-08-26T11:34:04.213Z,14.52
2022-08-26T11:36:36.508Z,14.56
2022-08-26T11:39:36.675Z,14.56
2022-08-26T11:42:47.783Z,14.58
2022-08-26T11:45:47.710Z,14.60
2022-08-26T11:48:43.332Z,14.58
2022-08-26T11:51:24.026Z,14.52
2022-08-26T11:54:17.513Z,14.51
2022-08-26T11:57:03.760Z,14.50
2022-08-26T11:59:41.988Z,14.43
2022-08-26T12:02:20.314Z,14.37
2022-08-26T12:04:52.865Z,14.35
2022-08-26T12:07:31.293Z,14.31
2022-08-26T12:10:07.422Z,14.24
2022-08-26T12:12:40.871Z,14.26
2022-08-26T12:15:17.794Z,14.28
2022-08-26T12:17:52.942Z,14.30
2022-08-26T12:20:49.623Z,14.25
2022-08-26T12:23:37.206Z,14.20
2022-08-26T12:26:33.437Z,14.17
2022-08-26T12:29:26.680Z,14.14
2022-08-26T12:32:15.790Z,14.09
2022-08-26T12:34:50.204Z,14.05
2022-08-26T12:37:19.823Z,14.07
2022-08-26T12:39:50.352Z,14.12
2022-08-26T12:42:42.367Z,14.14
2022-08-26T12:45:12.718Z,14.15
2022-08-26T12:47:46.582Z,14.15
2022-08-26T12:50:27.899Z,14.13
2022-08-26T12:53:15.414Z,14.13
2022-08-26T12:56:35.007Z,14.13
2022-08-26T12:59:26.023Z,14.14
2022-08-26T13:01:56.273Z,14.13
2022-08-26T13:04:45.361Z,14.19
2022-08-26T13:07:28.443Z,14.22
2022-08-26T13:10:00.465Z,14.26
2022-08-26T13:12:39.243Z,14.27
2022-08-26T13:15:09.638Z,14.27
2022-08-26T13:17:40.260Z,14.29
2022-08-26T13:20:10.321Z,14.29
2022-08-26T13:22:42.582Z,14.30
2022-08-26T13:25:12.367Z,14.34
2022-08-26T13:27:41.701Z,14.42
2022-08-26T13:30:13.274Z,14.52
2022-08-26T13:32:42.810Z,14.51
2022-08-26T13:35:13.526Z,14.48
2022-08-26T13:37:42.773Z,14.51
2022-08-26T13:40:14.198Z,14.56
2022-08-26T13:42:49.530Z,14.57
2022-08-26T13:45:20.784Z,14.54
2022-08-26T13:47:50.138Z,14.53
2022-08-26T13:50:19.499Z,14.58
2022-08-26T13:52:48.661Z,14.63
2022-08-26T13:55:19.030Z,14.66
2022-08-26T13:57:48.104Z,14.67
2022-08-26T14:00:18.440Z,14.68
2022-08-26T14:02:49.156Z,14.69
2022-08-26T14:05:18.569Z,14.72
2022-08-26T14:07:47.857Z,14.77
2022-08-26T14:10:17.165Z,14.83
2022-08-26T14:12:49.847Z,14.87
2022-08-26T14:15:20.092Z,14.92
2022-08-26T14:17:51.371Z,14.95
2022-08-26T14:20:30.658Z,15.01
2022-08-26T14:23:13.745Z,15.08
2022-08-26T14:25:44.850Z,15.16
2022-08-26T14:28:14.293Z,15.22
2022-08-26T14:30:45.612Z,15.27
2022-08-26T14:33:17.742Z,15.33
2022-08-26T14:35:48.072Z,15.40
2022-08-26T14:38:19.685Z,15.46
2022-08-26T14:40:48.858Z,15.54
2022-08-26T14:43:18.239Z,15.68
2022-08-26T14:45:47.699Z,15.77
2022-08-26T14:48:20.232Z,15.86
2022-08-26T14:50:49.776Z,15.97
2022-08-26T14:53:37.204Z,16.09
2022-08-26T14:56:06.821Z,16.25
2022-08-26T14:58:36.022Z,16.39
2022-08-26T15:01:05.232Z,16.50
2022-08-26T15:03:34.668Z,16.61
2022-08-26T15:06:04.088Z,16.74
2022-08-26T15:08:37.582Z,16.87
2022-08-26T15:11:06.898Z,16.99
2022-08-26T15:13:36.685Z,17.08
2022-08-26T15:16:06.971Z,17.13
2022-08-26T15:18:36.472Z,17.20
2022-08-26T15:21:08.286Z,17.25
2022-08-26T15:23:40.449Z,17.32
2022-08-26T15:26:15.256Z,17.35
2022-08-26T15:28:44.967Z,17.35
2022-08-26T15:31:14.512Z,17.38
2022-08-26T15:33:43.977Z,17.44
2022-08-26T15:36:13.371Z,17.51
2022-08-26T15:38:44.108Z,17.61
2022-08-26T15:41:15.281Z,17.68
2022-08-26T15:43:44.689Z,17.77
2022-08-26T15:46:14.965Z,17.90
2022-08-26T15:48:44.764Z,18.02
2022-08-26T15:51:30.611Z,18.14
2022-08-26T15:54:01.207Z,18.30
2022-08-26T15:56:34.324Z,18.42
2022-08-26T15:59:05.844Z,18.49
2022-08-26T16:01:35.870Z,18.56
2022-08-26T16:04:06.138Z,18.58
2022-08-26T16:06:40.235Z,18.59
2022-08-26T16:09:10.774Z,18.61
2022-08-26T16:11:40.115Z,18.63
2022-08-26T16:14:09.653Z,18.60
2022-08-26T16:16:42.376Z,18.56
2022-08-26T16:19:12.619Z,18.57
2022-08-26T16:21:43.051Z,18.65
2022-08-26T16:24:14.053Z,18.77
2022-08-26T16:26:46.286Z,18.85
2022-08-26T16:29:18.451Z,18.90
2022-08-26T16:31:48.947Z,18.92
2022-08-26T16:34:18.571Z,18.91
2022-08-26T16:36:48.037Z,18.92
2022-08-26T16:39:17.000Z,18.86
2022-08-26T16:41:46.356Z,18.73
2022-08-26T16:44:15.539Z,18.63
2022-08-26T16:46:45.781Z,18.52
2022-08-26T16:49:15.453Z,18.41
2022-08-26T16:51:44.652Z,18.29
2022-08-26T16:54:14.053Z,18.20
2022-08-26T16:56:43.334Z,18.16
2022-08-26T16:59:12.902Z,18.14
2022-08-26T17:01:42.319Z,18.13
2022-08-26T17:04:11.643Z,18.13
2022-08-26T17:06:41.055Z,18.15
2022-08-26T17:09:10.908Z,18.21
2022-08-26T17:11:40.470Z,18.26
2022-08-26T17:14:12.541Z,18.29
2022-08-26T17:16:41.889Z,18.30
2022-08-26T17:19:11.243Z,18.37
2022-08-26T17:21:42.388Z,18.45
2022-08-26T17:24:12.291Z,18.55
2022-08-26T17:26:48.412Z,18.64
2022-08-26T17:29:24.792Z,18.75
2022-08-26T17:31:53.947Z,18.84
2022-08-26T17:34:23.785Z,18.94
2022-08-26T17:36:53.044Z,19.05
2022-08-26T17:39:22.228Z,19.18
2022-08-26T17:41:51.809Z,19.25
2022-08-26T17:44:21.246Z,19.33
2022-08-26T17:46:50.543Z,19.41
2022-08-26T17:49:20.060Z,19.52
2022-08-26T17:51:49.241Z,19.58
2022-08-26T17:54:18.527Z,19.57
2022-08-26T17:56:47.806Z,19.54
2022-08-26T17:59:17.346Z,19.54
2022-08-26T18:01:47.544Z,19.54
2022-08-26T18:04:17.109Z,19.58
2022-08-26T18:06:46.537Z,19.66
2022-08-26T18:09:16.141Z,19.81
2022-08-26T18:11:45.370Z,19.94
2022-08-26T18:14:14.805Z,20.08
2022-08-26T18:16:43.982Z,20.23
2022-08-26T18:19:13.858Z,20.35
2022-08-26T18:21:43.354Z,20.47
2022-08-26T18:24:14.236Z,20.61
2022-08-26T18:26:49.947Z,20.72
2022-08-26T18:29:21.041Z,20.80
2022-08-26T18:31:50.840Z,20.90
2022-08-26T18:34:20.448Z,21.00
2022-08-26T18:36:50.079Z,21.15
2022-08-26T18:39:23.645Z,21.26
2022-08-26T18:41:54.525Z,21.38
2022-08-26T18:44:24.407Z,21.46
2022-08-26T18:46:54.553Z,21.53
2022-08-26T18:49:23.950Z,21.66
2022-08-26T18:51:53.999Z,21.78
2022-08-26T18:54:23.442Z,21.92
2022-08-26T18:56:52.984Z,22.05
2022-08-26T18:59:28.422Z,22.15
2022-08-26T19:02:00.332Z,22.26
2022-08-26T19:04:30.178Z,22.38
2022-08-26T19:06:59.495Z,22.51
2022-08-26T19:09:29.007Z,22.63
2022-08-26T19:11:58.469Z,22.77
2022-08-26T19:14:28.355Z,22.89
2022-08-26T19:16:58.401Z,22.98
2022-08-26T19:19:28.181Z,23.03
2022-08-26T19:21:57.754Z,23.06
2022-08-26T19:24:28.458Z,23.11
2022-08-26T19:27:01.433Z,23.14
2022-08-26T19:29:36.218Z,23.12
2022-08-26T19:32:06.909Z,23.13
2022-08-26T19:34:36.220Z,23.16
2022-08-26T19:37:05.703Z,23.21
2022-08-26T19:39:37.205Z,23.23
2022-08-26T19:42:06.871Z,23.25
2022-08-26T19:44:54.846Z,23.33
2022-08-26T19:47:24.315Z,23.42
2022-08-26T19:49:58.610Z,23.43
2022-08-26T19:52:30.057Z,23.40
2022-08-26T19:55:01.252Z,23.35
2022-08-26T19:57:30.915Z,23.34
2022-08-26T20:00:01.158Z,23.33
2022-08-26T20:02:31.864Z,23.34
2022-08-26T20:05:01.233Z,23.40
2022-08-26T20:07:30.624Z,23.45
2022-08-26T20:10:04.195Z,23.49
2022-08-26T20:12:36.553Z,23.50
2022-08-26T20:15:07.715Z,23.50
2022-08-26T20:17:37.798Z,23.55
2022-08-26T20:20:33.234Z,23.60
2022-08-26T20:23:06.177Z,23.66
2022-08-26T20:25:35.720Z,23.67
2022-08-26T20:28:05.243Z,23.69
2022-08-26T20:30:34.430Z,23.72
2022-08-26T20:33:03.814Z,23.74
2022-08-26T20:35:33.339Z,23.76
2022-08-26T20:38:02.564Z,23.83
2022-08-26T20:40:32.096Z,23.91
2022-08-26T20:43:01.382Z,23.99
2022-08-26T20:45:30.891Z,24.07
2022-08-26T20:48:00.479Z,24.14
2022-08-26T20:50:29.688Z,24.24
2022-08-26T20:52:59.399Z,24.35
2022-08-26T20:55:30.078Z,24.47
2022-08-26T20:57:59.341Z,24.61
2022-08-26T21:00:29.930Z,24.73
2022-08-26T21:02:59.076Z,24.83
2022-08-26T21:05:28.402Z,24.91
2022-08-26T21:07:57.621Z,25.02
2022-08-26T21:10:27.265Z,25.11
2022-08-26T21:12:57.671Z,25.21
2022-08-26T21:15:26.851Z,25.36
2022-08-26T21:17:55.891Z,25.45
2022-08-26T21:20:25.303Z,25.52
2022-08-26T21:22:54.733Z,25.53
2022-08-26T21:25:24.479Z,25.50
2022-08-26T21:27:53.999Z,25.45
2022-08-26T21:30:23.774Z,25.37
2022-08-26T21:32:53.512Z,25.28
2022-08-26T21:35:23.053Z,25.20
2022-08-26T21:37:52.044Z,25.15
2022-08-26T21:40:21.533Z,25.06
2022-08-26T21:42:50.918Z,24.97
2022-08-26T21:45:21.738Z,24.86
2022-08-26T21:47:51.347Z,24.62
2022-08-26T21:50:22.412Z,24.23
2022-08-26T21:52:51.670Z,23.61
2022-08-26T21:55:21.236Z,22.83
2022-08-26T21:57:50.544Z,21.89
2022-08-26T22:00:20.688Z,21.04
2022-08-26T22:02:51.263Z,20.35
2022-08-26T22:05:20.630Z,19.91
2022-08-26T22:07:50.003Z,19.48
2022-08-26T22:10:19.464Z,19.16
2022-08-26T22:12:48.926Z,18.90
2022-08-26T22:15:20.933Z,18.74
2022-08-26T22:17:50.615Z,18.58
2022-08-26T22:20:19.866Z,18.46
2022-08-26T22:22:49.080Z,18.34
2022-08-26T22:25:18.508Z,18.19
2022-08-26T22:27:47.895Z,18.03
2022-08-26T22:30:17.177Z,17.94
2022-08-26T22:32:47.053Z,17.83
2022-08-26T22:35:28.948Z,17.72
2022-08-26T22:38:00.403Z,17.65
2022-08-26T22:40:30.062Z,17.52
2022-08-26T22:43:00.467Z,17.36
2022-08-26T22:45:32.556Z,17.24
2022-08-26T22:48:06.854Z,17.17
2022-08-26T22:50:36.481Z,17.19
2022-08-26T22:53:06.247Z,17.21
2022-08-26T22:55:35.569Z,17.21
2022-08-26T22:58:05.825Z,17.22
2022-08-26T23:00:35.616Z,17.21
2022-08-26T23:03:06.086Z,17.20
2022-08-26T23:05:35.825Z,17.16
2022-08-26T23:08:05.709Z,17.22
2022-08-26T23:10:34.902Z,17.22
2022-08-26T23:13:06.033Z,17.09
2022-08-26T23:15:36.335Z,17.02
2022-08-26T23:18:06.651Z,16.99
2022-08-26T23:20:36.638Z,16.98
2022-08-26T23:23:06.325Z,16.90
2022-08-26T23:25:36.535Z,16.88
2022-08-26T23:28:06.858Z,16.89
2022-08-26T23:30:36.601Z,16.87
2022-08-26T23:33:06.382Z,16.84
2022-08-26T23:35:35.572Z,16.83
2022-08-26T23:38:06.348Z,16.86
2022-08-26T23:40:39.990Z,16.99
2022-08-26T23:43:12.563Z,17.05
2022-08-26T23:45:42.014Z,17.11
2022-08-26T23:48:12.129Z,17.21
2022-08-26T23:51:00.038Z,17.25
2022-08-26T23:53:29.291Z,17.26
2022-08-26T23:55:58.453Z,17.27
2022-08-26T23:58:27.964Z,17.32
